sensor_id;sensor_type;location;lat;lon;timestamp;temperature;humidity
12684;DHT22;6406;59.312;18.058;2022-07-23T00:00:17;18.10;2.50
12684;DHT22;6406;59.312;18.058;2022-07-23T00:02:45;18.10;1.10
12684;DHT22;6406;59.312;18.058;2022-07-23T00:05:12;18.30;1.00
12684;DHT22;6406;59.312;18.058;2022-07-23T00:07:39;18.30;1.00
12684;DHT22;6406;59.312;18.058;2022-07-23T00:10:09;18.20;1.00
12684;DHT22;6406;59.312;18.058;2022-07-23T00:12:36;18.10;1.00
12684;DHT22;6406;59.312;18.058;2022-07-23T00:15:05;18.10;1.00
12684;DHT22;6406;59.312;18.058;2022-07-23T00:17:32;18.20;1.00
12684;DHT22;6406;59.312;18.058;2022-07-23T00:19:59;18.20;1.00
12684;DHT22;6406;59.312;18.058;2022-07-23T00:22:26;18.00;1.00
12684;DHT22;6406;59.312;18.058;2022-07-23T00:24:54;17.90;1.00
12684;DHT22;6406;59.312;18.058;2022-07-23T00:27:23;17.90;1.00
12684;DHT22;6406;59.312;18.058;2022-07-23T00:29:50;17.90;1.00
12684;DHT22;6406;59.312;18.058;2022-07-23T00:32:17;17.90;1.00
12684;DHT22;6406;59.312;18.058;2022-07-23T00:34:44;17.90;1.00
12684;DHT22;6406;59.312;18.058;2022-07-23T00:37:11;17.90;1.00
12684;DHT22;6406;59.312;18.058;2022-07-23T00:39:38;17.80;1.00
12684;DHT22;6406;59.312;18.058;2022-07-23T00:42:05;17.80;1.00
12684;DHT22;6406;59.312;18.058;2022-07-23T00:44:33;17.70;1.00
12684;DHT22;6406;59.312;18.058;2022-07-23T00:47:00;17.70;1.00
12684;DHT22;6406;59.312;18.058;2022-07-23T00:49:28;17.80;1.00
12684;DHT22;6406;59.312;18.058;2022-07-23T00:51:56;17.70;1.00
12684;DHT22;6406;59.312;18.058;2022-07-23T00:54:25;17.70;1.00
12684;DHT22;6406;59.312;18.058;2022-07-23T00:56:52;17.50;1.00
12684;DHT22;6406;59.312;18.058;2022-07-23T00:59:20;17.40;1.00
12684;DHT22;6406;59.312;18.058;2022-07-23T01:01:48;17.30;1.00
12684;DHT22;6406;59.312;18.058;2022-07-23T01:04:16;17.30;1.00
12684;DHT22;6406;59.312;18.058;2022-07-23T01:06:43;17.30;1.00
12684;DHT22;6406;59.312;18.058;2022-07-23T01:09:11;17.10;1.00
12684;DHT22;6406;59.312;18.058;2022-07-23T01:11:38;17.10;1.00
12684;DHT22;6406;59.312;18.058;2022-07-23T01:14:10;17.20;1.00
12684;DHT22;6406;59.312;18.058;2022-07-23T01:16:38;17.10;1.00
12684;DHT22;6406;59.312;18.058;2022-07-23T01:19:07;17.00;1.00
12684;DHT22;6406;59.312;18.058;2022-07-23T01:21:39;17.00;1.00
12684;DHT22;6406;59.312;18.058;2022-07-23T01:24:09;17.00;1.00
12684;DHT22;6406;59.312;18.058;2022-07-23T01:26:36;17.10;1.00
12684;DHT22;6406;59.312;18.058;2022-07-23T01:29:04;17.00;1.00
12684;DHT22;6406;59.312;18.058;2022-07-23T01:31:31;17.00;1.00
12684;DHT22;6406;59.312;18.058;2022-07-23T01:33:58;17.10;1.00
12684;DHT22;6406;59.312;18.058;2022-07-23T01:36:25;17.10;1.00
12684;DHT22;6406;59.312;18.058;2022-07-23T01:38:52;17.00;1.00
12684;DHT22;6406;59.312;18.058;2022-07-23T01:41:21;16.80;1.00
12684;DHT22;6406;59.312;18.058;2022-07-23T01:43:48;16.50;1.00
12684;DHT22;6406;59.312;18.058;2022-07-23T01:46:15;16.50;1.00
12684;DHT22;6406;59.312;18.058;2022-07-23T01:48:42;16.50;1.00
12684;DHT22;6406;59.312;18.058;2022-07-23T01:51:09;16.40;1.00
12684;DHT22;6406;59.312;18.058;2022-07-23T01:53:36;16.20;1.00
12684;DHT22;6406;59.312;18.058;2022-07-23T01:56:03;16.10;1.00
12684;DHT22;6406;59.312;18.058;2022-07-23T01:58:32;15.90;4.00
12684;DHT22;6406;59.312;18.058;2022-07-23T02:00:59;15.50;3.80
12684;DHT22;6406;59.312;18.058;2022-07-23T02:03:26;15.80;6.40
12684;DHT22;6406;59.312;18.058;2022-07-23T02:05:53;15.90;10.30
12684;DHT22;6406;59.312;18.058;2022-07-23T02:08:20;16.00;3.00
12684;DHT22;6406;59.312;18.058;2022-07-23T02:10:47;15.90;1.00
12684;DHT22;6406;59.312;18.058;2022-07-23T02:13:16;15.90;1.00
12684;DHT22;6406;59.312;18.058;2022-07-23T02:15:45;16.00;1.00
12684;DHT22;6406;59.312;18.058;2022-07-23T02:18:12;15.90;1.00
12684;DHT22;6406;59.312;18.058;2022-07-23T02:20:39;15.80;1.70
12684;DHT22;6406;59.312;18.058;2022-07-23T02:23:06;15.90;1.00
12684;DHT22;6406;59.312;18.058;2022-07-23T02:25:34;15.90;1.00
12684;DHT22;6406;59.312;18.058;2022-07-23T02:28:01;16.00;1.00
12684;DHT22;6406;59.312;18.058;2022-07-23T02:30:28;16.10;1.00
12684;DHT22;6406;59.312;18.058;2022-07-23T02:32:56;15.60;1.00
12684;DHT22;6406;59.312;18.058;2022-07-23T02:35:23;15.50;6.70
12684;DHT22;6406;59.312;18.058;2022-07-23T02:37:50;15.40;5.00
12684;DHT22;6406;59.312;18.058;2022-07-23T02:40:17;15.40;11.20
12684;DHT22;6406;59.312;18.058;2022-07-23T02:42:44;15.50;9.60
12684;DHT22;6406;59.312;18.058;2022-07-23T02:45:11;15.70;6.50
12684;DHT22;6406;59.312;18.058;2022-07-23T02:47:38;15.80;1.00
12684;DHT22;6406;59.312;18.058;2022-07-23T02:50:08;15.70;1.00
12684;DHT22;6406;59.312;18.058;2022-07-23T02:52:35;15.60;1.00
12684;DHT22;6406;59.312;18.058;2022-07-23T02:55:02;15.50;1.40
12684;DHT22;6406;59.312;18.058;2022-07-23T02:57:29;15.40;1.00
12684;DHT22;6406;59.312;18.058;2022-07-23T02:59:56;15.40;1.50
12684;DHT22;6406;59.312;18.058;2022-07-23T03:02:23;15.20;2.70
12684;DHT22;6406;59.312;18.058;2022-07-23T03:04:50;15.20;1.00
12684;DHT22;6406;59.312;18.058;2022-07-23T03:07:18;15.10;1.40
12684;DHT22;6406;59.312;18.058;2022-07-23T03:09:45;15.30;1.00
12684;DHT22;6406;59.312;18.058;2022-07-23T03:12:12;15.30;1.00
12684;DHT22;6406;59.312;18.058;2022-07-23T03:14:39;15.10;1.00
12684;DHT22;6406;59.312;18.058;2022-07-23T03:17:06;15.10;1.00
12684;DHT22;6406;59.312;18.058;2022-07-23T03:19:33;15.10;1.00
12684;DHT22;6406;59.312;18.058;2022-07-23T03:22:00;15.20;1.00
12684;DHT22;6406;59.312;18.058;2022-07-23T03:24:28;15.20;1.00
12684;DHT22;6406;59.312;18.058;2022-07-23T03:27:09;15.30;1.00
12684;DHT22;6406;59.312;18.058;2022-07-23T03:29:36;15.30;1.00
12684;DHT22;6406;59.312;18.058;2022-07-23T03:32:04;15.40;1.00
12684;DHT22;6406;59.312;18.058;2022-07-23T03:34:31;15.40;1.00
12684;DHT22;6406;59.312;18.058;2022-07-23T03:36:58;15.50;1.00
12684;DHT22;6406;59.312;18.058;2022-07-23T03:39:25;15.40;1.00
12684;DHT22;6406;59.312;18.058;2022-07-23T03:41:53;15.10;1.00
12684;DHT22;6406;59.312;18.058;2022-07-23T03:44:20;15.10;1.00
12684;DHT22;6406;59.312;18.058;2022-07-23T03:46:47;15.10;1.00
12684;DHT22;6406;59.312;18.058;2022-07-23T03:49:14;15.10;1.00
12684;DHT22;6406;59.312;18.058;2022-07-23T03:51:41;15.00;1.00
12684;DHT22;6406;59.312;18.058;2022-07-23T03:54:08;15.10;1.00
12684;DHT22;6406;59.312;18.058;2022-07-23T03:56:36;15.20;1.00
12684;DHT22;6406;59.312;18.058;2022-07-23T03:59:04;15.30;1.00
12684;DHT22;6406;59.312;18.058;2022-07-23T04:01:31;15.20;1.00
12684;DHT22;6406;59.312;18.058;2022-07-23T04:03:58;15.20;1.00
12684;DHT22;6406;59.312;18.058;2022-07-23T04:06:25;15.30;1.00
12684;DHT22;6406;59.312;18.058;2022-07-23T04:08:55;15.30;1.00
12684;DHT22;6406;59.312;18.058;2022-07-23T04:11:22;15.40;1.00
12684;DHT22;6406;59.312;18.058;2022-07-23T04:13:49;15.60;1.00
12684;DHT22;6406;59.312;18.058;2022-07-23T04:16:17;15.70;1.00
12684;DHT22;6406;59.312;18.058;2022-07-23T04:18:44;15.60;1.00
12684;DHT22;6406;59.312;18.058;2022-07-23T04:21:11;15.40;1.00
12684;DHT22;6406;59.312;18.058;2022-07-23T04:23:38;15.30;1.00
12684;DHT22;6406;59.312;18.058;2022-07-23T04:26:05;15.30;1.00
12684;DHT22;6406;59.312;18.058;2022-07-23T04:28:32;15.50;1.00
12684;DHT22;6406;59.312;18.058;2022-07-23T04:30:59;15.60;1.00
12684;DHT22;6406;59.312;18.058;2022-07-23T04:33:27;15.70;1.00
12684;DHT22;6406;59.312;18.058;2022-07-23T04:35:54;15.70;1.00
12684;DHT22;6406;59.312;18.058;2022-07-23T04:38:21;15.80;1.00
12684;DHT22;6406;59.312;18.058;2022-07-23T04:40:48;16.10;1.00
12684;DHT22;6406;59.312;18.058;2022-07-23T04:43:15;16.10;1.00
12684;DHT22;6406;59.312;18.058;2022-07-23T04:45:42;16.40;1.00
12684;DHT22;6406;59.312;18.058;2022-07-23T04:48:09;16.10;1.00
12684;DHT22;6406;59.312;18.058;2022-07-23T04:50:37;15.90;1.00
12684;DHT22;6406;59.312;18.058;2022-07-23T04:53:04;15.90;1.00
12684;DHT22;6406;59.312;18.058;2022-07-23T04:55:31;16.00;1.00
12684;DHT22;6406;59.312;18.058;2022-07-23T04:57:58;15.90;1.00
12684;DHT22;6406;59.312;18.058;2022-07-23T05:00:25;16.10;1.00
12684;DHT22;6406;59.312;18.058;2022-07-23T05:02:52;16.00;1.00
12684;DHT22;6406;59.312;18.058;2022-07-23T05:05:19;15.80;1.00
12684;DHT22;6406;59.312;18.058;2022-07-23T05:07:48;15.70;1.00
12684;DHT22;6406;59.312;18.058;2022-07-23T05:10:15;15.80;1.00
12684;DHT22;6406;59.312;18.058;2022-07-23T05:12:41;16.00;1.00
12684;DHT22;6406;59.312;18.058;2022-07-23T05:15:09;16.00;1.00
12684;DHT22;6406;59.312;18.058;2022-07-23T05:17:36;16.00;1.00
12684;DHT22;6406;59.312;18.058;2022-07-23T05:20:03;15.90;1.00
12684;DHT22;6406;59.312;18.058;2022-07-23T05:22:30;15.90;1.00
12684;DHT22;6406;59.312;18.058;2022-07-23T05:24:59;15.80;1.00
12684;DHT22;6406;59.312;18.058;2022-07-23T05:27:26;15.70;1.00
12684;DHT22;6406;59.312;18.058;2022-07-23T05:29:52;15.70;1.00
12684;DHT22;6406;59.312;18.058;2022-07-23T05:32:19;15.50;1.00
12684;DHT22;6406;59.312;18.058;2022-07-23T05:34:46;15.60;1.00
12684;DHT22;6406;59.312;18.058;2022-07-23T05:37:13;15.70;1.00
12684;DHT22;6406;59.312;18.058;2022-07-23T05:39:40;15.80;1.00
12684;DHT22;6406;59.312;18.058;2022-07-23T05:42:09;15.80;1.00
12684;DHT22;6406;59.312;18.058;2022-07-23T05:44:36;15.90;1.00
12684;DHT22;6406;59.312;18.058;2022-07-23T05:47:03;16.00;1.00
12684;DHT22;6406;59.312;18.058;2022-07-23T05:49:30;16.20;1.00
12684;DHT22;6406;59.312;18.058;2022-07-23T05:51:57;16.30;1.00
12684;DHT22;6406;59.312;18.058;2022-07-23T05:54:24;16.30;1.00
12684;DHT22;6406;59.312;18.058;2022-07-23T05:56:51;16.00;1.00
12684;DHT22;6406;59.312;18.058;2022-07-23T05:59:19;16.20;1.00
12684;DHT22;6406;59.312;18.058;2022-07-23T06:01:46;16.30;1.00
12684;DHT22;6406;59.312;18.058;2022-07-23T06:04:13;16.40;1.00
12684;DHT22;6406;59.312;18.058;2022-07-23T06:06:40;16.40;1.00
12684;DHT22;6406;59.312;18.058;2022-07-23T06:09:07;16.50;1.00
12684;DHT22;6406;59.312;18.058;2022-07-23T06:11:36;16.10;1.00
12684;DHT22;6406;59.312;18.058;2022-07-23T06:14:03;16.00;1.00
12684;DHT22;6406;59.312;18.058;2022-07-23T06:16:32;16.00;1.00
12684;DHT22;6406;59.312;18.058;2022-07-23T06:18:59;16.10;1.00
12684;DHT22;6406;59.312;18.058;2022-07-23T06:21:26;16.20;1.00
12684;DHT22;6406;59.312;18.058;2022-07-23T06:23:53;16.30;1.00
12684;DHT22;6406;59.312;18.058;2022-07-23T06:26:19;16.20;1.00
12684;DHT22;6406;59.312;18.058;2022-07-23T06:28:46;16.40;1.00
12684;DHT22;6406;59.312;18.058;2022-07-23T06:31:13;16.40;1.00
12684;DHT22;6406;59.312;18.058;2022-07-23T06:33:42;16.40;1.00
12684;DHT22;6406;59.312;18.058;2022-07-23T06:36:09;16.30;1.00
12684;DHT22;6406;59.312;18.058;2022-07-23T06:38:36;16.30;1.00
12684;DHT22;6406;59.312;18.058;2022-07-23T06:41:03;16.20;1.00
12684;DHT22;6406;59.312;18.058;2022-07-23T06:43:30;16.20;1.00
12684;DHT22;6406;59.312;18.058;2022-07-23T06:45:57;16.30;1.00
12684;DHT22;6406;59.312;18.058;2022-07-23T06:48:24;16.20;1.00
12684;DHT22;6406;59.312;18.058;2022-07-23T06:50:53;16.20;1.00
12684;DHT22;6406;59.312;18.058;2022-07-23T06:53:20;16.40;1.00
12684;DHT22;6406;59.312;18.058;2022-07-23T06:55:47;16.50;1.00
12684;DHT22;6406;59.312;18.058;2022-07-23T06:58:14;16.90;1.00
12684;DHT22;6406;59.312;18.058;2022-07-23T07:00:41;17.20;1.00
12684;DHT22;6406;59.312;18.058;2022-07-23T07:03:08;17.40;1.00
12684;DHT22;6406;59.312;18.058;2022-07-23T07:05:35;17.20;1.00
12684;DHT22;6406;59.312;18.058;2022-07-23T07:08:04;17.30;1.00
12684;DHT22;6406;59.312;18.058;2022-07-23T07:10:31;17.30;1.00
12684;DHT22;6406;59.312;18.058;2022-07-23T07:12:58;17.20;1.00
12684;DHT22;6406;59.312;18.058;2022-07-23T07:15:25;17.40;1.00
12684;DHT22;6406;59.312;18.058;2022-07-23T07:17:52;17.50;1.00
12684;DHT22;6406;59.312;18.058;2022-07-23T07:20:19;17.80;1.00
12684;DHT22;6406;59.312;18.058;2022-07-23T07:22:46;17.90;1.00
12684;DHT22;6406;59.312;18.058;2022-07-23T07:25:15;18.00;1.00
12684;DHT22;6406;59.312;18.058;2022-07-23T07:27:42;17.70;1.00
12684;DHT22;6406;59.312;18.058;2022-07-23T07:30:10;17.60;1.00
12684;DHT22;6406;59.312;18.058;2022-07-23T07:32:38;17.60;1.00
12684;DHT22;6406;59.312;18.058;2022-07-23T07:35:06;17.70;1.00
12684;DHT22;6406;59.312;18.058;2022-07-23T07:37:33;17.90;1.00
12684;DHT22;6406;59.312;18.058;2022-07-23T07:40:00;18.10;1.00
12684;DHT22;6406;59.312;18.058;2022-07-23T07:42:29;18.10;1.00
12684;DHT22;6406;59.312;18.058;2022-07-23T07:44:57;18.00;1.00
12684;DHT22;6406;59.312;18.058;2022-07-23T07:47:24;17.80;1.00
12684;DHT22;6406;59.312;18.058;2022-07-23T07:49:51;17.70;1.00
12684;DHT22;6406;59.312;18.058;2022-07-23T07:52:18;17.70;1.00
12684;DHT22;6406;59.312;18.058;2022-07-23T07:54:45;17.70;1.00
12684;DHT22;6406;59.312;18.058;2022-07-23T07:57:12;17.80;1.00
12684;DHT22;6406;59.312;18.058;2022-07-23T07:59:40;17.90;1.00
12684;DHT22;6406;59.312;18.058;2022-07-23T08:02:07;17.60;1.00
12684;DHT22;6406;59.312;18.058;2022-07-23T08:04:34;17.80;1.00
12684;DHT22;6406;59.312;18.058;2022-07-23T08:07:01;17.80;1.00
12684;DHT22;6406;59.312;18.058;2022-07-23T08:09:28;17.60;1.00
12684;DHT22;6406;59.312;18.058;2022-07-23T08:11:55;17.80;1.00
12684;DHT22;6406;59.312;18.058;2022-07-23T08:14:22;18.10;1.00
12684;DHT22;6406;59.312;18.058;2022-07-23T08:16:51;18.20;1.00
12684;DHT22;6406;59.312;18.058;2022-07-23T08:19:18;18.10;1.00
12684;DHT22;6406;59.312;18.058;2022-07-23T08:21:45;18.10;1.00
12684;DHT22;6406;59.312;18.058;2022-07-23T08:24:12;18.20;1.00
12684;DHT22;6406;59.312;18.058;2022-07-23T08:26:39;18.30;1.00
12684;DHT22;6406;59.312;18.058;2022-07-23T08:29:06;18.40;1.00
12684;DHT22;6406;59.312;18.058;2022-07-23T08:31:33;18.30;1.00
12684;DHT22;6406;59.312;18.058;2022-07-23T08:34:02;17.90;1.00
12684;DHT22;6406;59.312;18.058;2022-07-23T08:36:29;18.00;1.00
12684;DHT22;6406;59.312;18.058;2022-07-23T08:38:57;17.90;1.00
12684;DHT22;6406;59.312;18.058;2022-07-23T08:41:26;18.10;1.00
12684;DHT22;6406;59.312;18.058;2022-07-23T08:43:53;18.30;1.00
12684;DHT22;6406;59.312;18.058;2022-07-23T08:46:20;18.00;1.00
12684;DHT22;6406;59.312;18.058;2022-07-23T08:48:49;17.70;1.00
12684;DHT22;6406;59.312;18.058;2022-07-23T08:51:18;17.60;1.00
12684;DHT22;6406;59.312;18.058;2022-07-23T08:53:46;17.70;1.00
12684;DHT22;6406;59.312;18.058;2022-07-23T08:56:14;17.70;1.00
12684;DHT22;6406;59.312;18.058;2022-07-23T08:58:41;17.70;1.00
12684;DHT22;6406;59.312;18.058;2022-07-23T09:01:08;17.90;1.00
12684;DHT22;6406;59.312;18.058;2022-07-23T09:03:36;17.90;1.00
12684;DHT22;6406;59.312;18.058;2022-07-23T09:06:05;17.90;1.00
12684;DHT22;6406;59.312;18.058;2022-07-23T09:08:38;17.80;1.00
12684;DHT22;6406;59.312;18.058;2022-07-23T09:11:07;17.70;1.00
12684;DHT22;6406;59.312;18.058;2022-07-23T09:13:37;17.80;1.00
12684;DHT22;6406;59.312;18.058;2022-07-23T09:16:06;17.70;1.00
12684;DHT22;6406;59.312;18.058;2022-07-23T09:18:40;17.70;1.00
12684;DHT22;6406;59.312;18.058;2022-07-23T09:21:14;17.80;1.00
12684;DHT22;6406;59.312;18.058;2022-07-23T09:23:44;17.80;1.00
12684;DHT22;6406;59.312;18.058;2022-07-23T09:26:26;17.90;1.00
12684;DHT22;6406;59.312;18.058;2022-07-23T09:28:59;18.10;1.00
12684;DHT22;6406;59.312;18.058;2022-07-23T09:31:32;18.20;1.00
12684;DHT22;6406;59.312;18.058;2022-07-23T09:34:12;18.40;1.00
12684;DHT22;6406;59.312;18.058;2022-07-23T09:36:39;18.40;1.00
12684;DHT22;6406;59.312;18.058;2022-07-23T09:39:09;18.40;1.00
12684;DHT22;6406;59.312;18.058;2022-07-23T09:41:38;18.50;1.00
12684;DHT22;6406;59.312;18.058;2022-07-23T09:44:14;18.50;1.00
12684;DHT22;6406;59.312;18.058;2022-07-23T09:46:43;18.50;1.00
12684;DHT22;6406;59.312;18.058;2022-07-23T09:49:14;18.50;1.00
12684;DHT22;6406;59.312;18.058;2022-07-23T09:51:46;18.20;1.00
12684;DHT22;6406;59.312;18.058;2022-07-23T09:54:27;17.90;1.00
12684;DHT22;6406;59.312;18.058;2022-07-23T09:56:57;17.80;1.00
12684;DHT22;6406;59.312;18.058;2022-07-23T09:59:25;18.00;1.00
12684;DHT22;6406;59.312;18.058;2022-07-23T10:01:53;18.20;1.00
12684;DHT22;6406;59.312;18.058;2022-07-23T10:04:22;18.60;1.00
12684;DHT22;6406;59.312;18.058;2022-07-23T10:06:52;18.30;1.00
12684;DHT22;6406;59.312;18.058;2022-07-23T10:09:25;18.50;1.00
12684;DHT22;6406;59.312;18.058;2022-07-23T10:11:56;18.50;1.00
12684;DHT22;6406;59.312;18.058;2022-07-23T10:14:42;18.60;1.00
12684;DHT22;6406;59.312;18.058;2022-07-23T10:17:08;18.80;1.00
12684;DHT22;6406;59.312;18.058;2022-07-23T10:19:36;18.80;1.00
12684;DHT22;6406;59.312;18.058;2022-07-23T10:22:06;18.50;1.00
12684;DHT22;6406;59.312;18.058;2022-07-23T10:24:48;18.10;1.00
12684;DHT22;6406;59.312;18.058;2022-07-23T10:27:31;18.30;1.00
12684;DHT22;6406;59.312;18.058;2022-07-23T10:30:03;18.20;1.00
12684;DHT22;6406;59.312;18.058;2022-07-23T10:32:40;18.30;1.00
12684;DHT22;6406;59.312;18.058;2022-07-23T10:35:15;18.50;1.00
12684;DHT22;6406;59.312;18.058;2022-07-23T10:37:49;18.20;1.00
12684;DHT22;6406;59.312;18.058;2022-07-23T10:40:20;17.90;1.00
12684;DHT22;6406;59.312;18.058;2022-07-23T10:42:49;17.80;1.00
12684;DHT22;6406;59.312;18.058;2022-07-23T10:45:25;17.90;1.00
12684;DHT22;6406;59.312;18.058;2022-07-23T10:47:53;18.10;1.00
12684;DHT22;6406;59.312;18.058;2022-07-23T10:50:22;18.00;1.00
12684;DHT22;6406;59.312;18.058;2022-07-23T10:53:09;17.60;1.00
12684;DHT22;6406;59.312;18.058;2022-07-23T10:55:51;17.60;1.00
12684;DHT22;6406;59.312;18.058;2022-07-23T10:58:23;17.70;1.00
12684;DHT22;6406;59.312;18.058;2022-07-23T11:01:31;17.60;1.00
12684;DHT22;6406;59.312;18.058;2022-07-23T11:03:58;17.70;1.00
12684;DHT22;6406;59.312;18.058;2022-07-23T11:09:28;17.70;1.00
12684;DHT22;6406;59.312;18.058;2022-07-23T11:15:01;17.80;1.00
12684;DHT22;6406;59.312;18.058;2022-07-23T11:17:29;18.40;1.00
12684;DHT22;6406;59.312;18.058;2022-07-23T11:20:18;17.90;1.00
12684;DHT22;6406;59.312;18.058;2022-07-23T11:22:49;17.90;1.00
12684;DHT22;6406;59.312;18.058;2022-07-23T11:25:35;17.50;1.00
12684;DHT22;6406;59.312;18.058;2022-07-23T11:28:16;17.50;1.00
12684;DHT22;6406;59.312;18.058;2022-07-23T11:30:45;17.20;1.00
12684;DHT22;6406;59.312;18.058;2022-07-23T11:33:18;17.10;1.00
12684;DHT22;6406;59.312;18.058;2022-07-23T11:35:47;17.10;1.00
12684;DHT22;6406;59.312;18.058;2022-07-23T11:38:16;17.20;1.00
12684;DHT22;6406;59.312;18.058;2022-07-23T11:40:45;17.00;1.00
12684;DHT22;6406;59.312;18.058;2022-07-23T11:43:13;17.10;1.00
12684;DHT22;6406;59.312;18.058;2022-07-23T11:45:42;17.10;1.00
12684;DHT22;6406;59.312;18.058;2022-07-23T11:48:18;17.20;1.00
12684;DHT22;6406;59.312;18.058;2022-07-23T11:50:45;17.40;1.00
12684;DHT22;6406;59.312;18.058;2022-07-23T11:53:12;17.40;1.00
12684;DHT22;6406;59.312;18.058;2022-07-23T11:55:40;17.50;1.00
12684;DHT22;6406;59.312;18.058;2022-07-23T11:58:07;17.30;1.00
12684;DHT22;6406;59.312;18.058;2022-07-23T12:00:34;17.50;1.00
12684;DHT22;6406;59.312;18.058;2022-07-23T12:03:02;17.30;1.00
12684;DHT22;6406;59.312;18.058;2022-07-23T12:05:34;17.50;1.00
12684;DHT22;6406;59.312;18.058;2022-07-23T12:08:04;17.40;1.00
12684;DHT22;6406;59.312;18.058;2022-07-23T12:10:34;16.80;1.00
12684;DHT22;6406;59.312;18.058;2022-07-23T12:13:04;17.10;1.00
12684;DHT22;6406;59.312;18.058;2022-07-23T12:15:33;17.20;1.00
12684;DHT22;6406;59.312;18.058;2022-07-23T12:18:04;17.10;1.00
12684;DHT22;6406;59.312;18.058;2022-07-23T12:20:34;16.80;1.00
12684;DHT22;6406;59.312;18.058;2022-07-23T12:23:02;16.90;1.00
12684;DHT22;6406;59.312;18.058;2022-07-23T12:25:32;17.20;1.00
12684;DHT22;6406;59.312;18.058;2022-07-23T12:28:02;17.10;1.00
12684;DHT22;6406;59.312;18.058;2022-07-23T12:30:31;17.10;1.00
12684;DHT22;6406;59.312;18.058;2022-07-23T12:33:00;17.00;1.00
12684;DHT22;6406;59.312;18.058;2022-07-23T12:35:34;17.00;1.00
12684;DHT22;6406;59.312;18.058;2022-07-23T12:38:04;16.90;1.00
12684;DHT22;6406;59.312;18.058;2022-07-23T12:40:32;16.90;1.00
12684;DHT22;6406;59.312;18.058;2022-07-23T12:43:02;17.10;1.00
12684;DHT22;6406;59.312;18.058;2022-07-23T12:45:43;17.20;1.00
12684;DHT22;6406;59.312;18.058;2022-07-23T12:48:23;17.30;1.00
12684;DHT22;6406;59.312;18.058;2022-07-23T12:50:55;17.20;1.00
12684;DHT22;6406;59.312;18.058;2022-07-23T12:53:24;17.30;1.00
12684;DHT22;6406;59.312;18.058;2022-07-23T12:55:58;17.30;1.00
12684;DHT22;6406;59.312;18.058;2022-07-23T12:58:25;17.30;1.00
12684;DHT22;6406;59.312;18.058;2022-07-23T13:00:57;17.30;1.00
12684;DHT22;6406;59.312;18.058;2022-07-23T13:03:27;17.40;1.00
12684;DHT22;6406;59.312;18.058;2022-07-23T13:05:55;17.50;1.00
12684;DHT22;6406;59.312;18.058;2022-07-23T13:08:23;17.50;1.00
12684;DHT22;6406;59.312;18.058;2022-07-23T13:10:51;17.30;1.00
12684;DHT22;6406;59.312;18.058;2022-07-23T13:13:21;17.40;1.00
12684;DHT22;6406;59.312;18.058;2022-07-23T13:15:48;17.50;1.00
12684;DHT22;6406;59.312;18.058;2022-07-23T13:18:15;17.60;1.00
12684;DHT22;6406;59.312;18.058;2022-07-23T13:20:43;17.50;1.00
12684;DHT22;6406;59.312;18.058;2022-07-23T13:23:12;17.40;1.00
12684;DHT22;6406;59.312;18.058;2022-07-23T13:25:40;17.30;1.00
12684;DHT22;6406;59.312;18.058;2022-07-23T13:28:07;17.30;1.00
12684;DHT22;6406;59.312;18.058;2022-07-23T13:30:35;17.30;1.00
12684;DHT22;6406;59.312;18.058;2022-07-23T13:33:02;17.30;1.00
12684;DHT22;6406;59.312;18.058;2022-07-23T13:35:30;17.40;1.00
12684;DHT22;6406;59.312;18.058;2022-07-23T13:37:57;17.40;1.00
12684;DHT22;6406;59.312;18.058;2022-07-23T13:40:26;17.40;1.00
12684;DHT22;6406;59.312;18.058;2022-07-23T13:42:53;17.40;1.00
12684;DHT22;6406;59.312;18.058;2022-07-23T13:45:20;17.60;1.00
12684;DHT22;6406;59.312;18.058;2022-07-23T13:47:47;17.70;1.00
12684;DHT22;6406;59.312;18.058;2022-07-23T13:50:14;17.60;1.00
12684;DHT22;6406;59.312;18.058;2022-07-23T13:52:42;17.50;1.00
12684;DHT22;6406;59.312;18.058;2022-07-23T13:55:10;17.70;1.00
12684;DHT22;6406;59.312;18.058;2022-07-23T13:57:39;17.80;1.00
12684;DHT22;6406;59.312;18.058;2022-07-23T14:00:07;17.80;1.00
12684;DHT22;6406;59.312;18.058;2022-07-23T14:02:37;18.00;1.00
12684;DHT22;6406;59.312;18.058;2022-07-23T14:05:05;17.90;1.00
12684;DHT22;6406;59.312;18.058;2022-07-23T14:07:32;17.80;1.00
12684;DHT22;6406;59.312;18.058;2022-07-23T14:09:59;17.90;1.00
12684;DHT22;6406;59.312;18.058;2022-07-23T14:12:26;18.00;1.00
12684;DHT22;6406;59.312;18.058;2022-07-23T14:14:54;17.90;1.00
12684;DHT22;6406;59.312;18.058;2022-07-23T14:17:22;18.00;1.00
12684;DHT22;6406;59.312;18.058;2022-07-23T14:19:49;18.00;1.00
12684;DHT22;6406;59.312;18.058;2022-07-23T14:22:16;17.90;1.00
12684;DHT22;6406;59.312;18.058;2022-07-23T14:24:43;17.90;1.00
12684;DHT22;6406;59.312;18.058;2022-07-23T14:27:10;17.80;1.00
12684;DHT22;6406;59.312;18.058;2022-07-23T14:29:38;17.70;1.00
12684;DHT22;6406;59.312;18.058;2022-07-23T14:32:06;17.80;1.00
12684;DHT22;6406;59.312;18.058;2022-07-23T14:34:33;17.90;1.00
12684;DHT22;6406;59.312;18.058;2022-07-23T14:37:01;17.90;1.00
12684;DHT22;6406;59.312;18.058;2022-07-23T14:39:28;17.90;1.00
12684;DHT22;6406;59.312;18.058;2022-07-23T14:41:55;18.00;1.00
12684;DHT22;6406;59.312;18.058;2022-07-23T14:44:22;17.90;1.00
12684;DHT22;6406;59.312;18.058;2022-07-23T14:46:49;17.80;1.00
12684;DHT22;6406;59.312;18.058;2022-07-23T14:49:17;17.70;1.00
12684;DHT22;6406;59.312;18.058;2022-07-23T14:51:44;17.70;1.00
12684;DHT22;6406;59.312;18.058;2022-07-23T14:54:12;17.80;1.00
12684;DHT22;6406;59.312;18.058;2022-07-23T14:56:39;17.80;1.00
12684;DHT22;6406;59.312;18.058;2022-07-23T14:59:07;17.70;1.00
12684;DHT22;6406;59.312;18.058;2022-07-23T15:01:34;17.80;1.00
12684;DHT22;6406;59.312;18.058;2022-07-23T15:04:02;17.70;1.00
12684;DHT22;6406;59.312;18.058;2022-07-23T15:06:30;17.60;1.00
12684;DHT22;6406;59.312;18.058;2022-07-23T15:08:57;17.40;1.00
12684;DHT22;6406;59.312;18.058;2022-07-23T15:11:25;17.20;1.00
12684;DHT22;6406;59.312;18.058;2022-07-23T15:13:52;17.20;1.00
12684;DHT22;6406;59.312;18.058;2022-07-23T15:16:19;17.10;1.00
12684;DHT22;6406;59.312;18.058;2022-07-23T15:18:46;17.20;1.00
12684;DHT22;6406;59.312;18.058;2022-07-23T15:21:13;17.30;1.00
12684;DHT22;6406;59.312;18.058;2022-07-23T15:23:42;17.40;1.00
12684;DHT22;6406;59.312;18.058;2022-07-23T15:26:08;17.60;1.00
12684;DHT22;6406;59.312;18.058;2022-07-23T15:28:36;17.60;1.00
12684;DHT22;6406;59.312;18.058;2022-07-23T15:31:03;17.60;1.00
12684;DHT22;6406;59.312;18.058;2022-07-23T15:33:31;17.60;1.00
12684;DHT22;6406;59.312;18.058;2022-07-23T15:35:58;17.80;1.00
12684;DHT22;6406;59.312;18.058;2022-07-23T15:38:25;17.60;1.00
12684;DHT22;6406;59.312;18.058;2022-07-23T15:40:54;17.70;1.00
12684;DHT22;6406;59.312;18.058;2022-07-23T15:43:21;17.70;1.00
12684;DHT22;6406;59.312;18.058;2022-07-23T15:45:49;17.70;1.00
12684;DHT22;6406;59.312;18.058;2022-07-23T15:48:16;17.80;1.00
12684;DHT22;6406;59.312;18.058;2022-07-23T15:50:44;17.80;1.00
12684;DHT22;6406;59.312;18.058;2022-07-23T15:53:11;17.80;1.00
12684;DHT22;6406;59.312;18.058;2022-07-23T15:55:39;17.80;1.00
12684;DHT22;6406;59.312;18.058;2022-07-23T15:58:08;17.80;1.00